Time;durP1;ratioP1;P1;durP2;ratioP2;P2;SDS_P1;SDS_P2;PMS_P1;PMS_P2;Temp;Humidity;BMP_temperature;BMP_pressure;BME280_temperature;BME280_humidity;BME280_pressure;Samples;Min_cycle;Max_cycle;Signal;HPM_P1;HPM_P2
2024/04/06 05:21:24;;;;;;;;;;;;;;;5.00;100.00;99505.44;4874992;29;20316;-82
2024/04/06 05:23:49;;;;;;;;;;;;;;;4.90;100.00;99500.41;4877779;29;19931;-82
2024/04/06 05:26:15;;;;;;;;;;;;;;;4.93;100.00;99509.09;4878186;29;19924;-81
2024/04/06 05:28:40;;;;;;;;;;;;;;;4.95;100.00;99510.81;4880492;29;19920;-81
2024/04/06 05:31:05;;;;;;;;;;;;;;;4.99;100.00;99515.06;4881230;29;19986;-81
2024/04/06 05:33:30;;;;;;;;;;;;;;;4.91;100.00;99520.53;4863176;29;19954;-82
2024/04/06 05:35:56;;;;;;;;;;;;;;;5.02;100.00;99519.41;4881234;29;19924;-82
2024/04/06 05:38:21;;;;;;;;;;;;;;;5.18;100.00;99514.63;4881138;29;19927;-82
2024/04/06 05:40:47;;;;;;;;;;;;;;;5.24;100.00;99523.22;4864371;29;20070;-81
2024/04/06 05:43:13;;;;;;;;;;;;;;;5.21;100.00;99515.41;4880724;29;19920;-82
2024/04/06 05:45:41;;;;;;;;;;;;;;;5.33;100.00;99513.38;4864402;29;19931;-82
2024/04/06 05:48:06;;;;;;;;;;;;;;;5.49;100.00;99506.81;4879027;29;19931;-82
2024/04/06 05:50:32;;;;;;;;;;;;;;;5.65;100.00;99509.91;4880904;29;19920;-82
2024/04/06 05:52:58;;;;;;;;;;;;;;;5.50;100.00;99512.94;4880772;29;20371;-85
2024/04/06 05:55:23;;;;;;;;;;;;;;;5.51;100.00;99515.53;4880822;29;19924;-83
2024/04/06 05:57:48;;;;;;;;;;;;;;;5.38;100.00;99522.00;4880682;29;19928;-83
2024/04/06 06:00:15;;;;;;;;;;;;;;;5.42;100.00;99513.13;4880738;29;19982;-84
2024/04/06 06:02:40;;;;;;;;;;;;;;;5.40;100.00;99513.16;4879460;29;19959;-82
2024/04/06 06:05:06;;;;;;;;;;;;;;;5.51;100.00;99510.25;4880575;29;19977;-83
2024/04/06 06:07:31;;;;;;;;;;;;;;;5.47;100.00;99513.88;4880637;29;19930;-82
2024/04/06 06:09:57;;;;;;;;;;;;;;;5.40;100.00;99507.06;4879802;29;19955;-83
2024/04/06 06:12:24;;;;;;;;;;;;;;;5.54;100.00;99510.19;4863703;29;19927;-83
2024/04/06 06:14:49;;;;;;;;;;;;;;;5.38;100.00;99519.38;4880389;29;19924;-83
2024/04/06 06:17:17;;;;;;;;;;;;;;;5.44;100.00;99508.69;4880004;29;19927;-90
2024/04/06 06:19:43;;;;;;;;;;;;;;;5.62;100.00;99517.88;4879977;29;19972;-82
2024/04/06 06:22:08;;;;;;;;;;;;;;;5.57;100.00;99525.03;4880370;29;19923;-82
2024/04/06 06:24:33;;;;;;;;;;;;;;;5.77;100.00;99521.84;4880502;29;20189;-82
2024/04/06 06:26:58;;;;;;;;;;;;;;;5.59;100.00;99518.81;4880211;29;20000;-83
2024/04/06 06:29:24;;;;;;;;;;;;;;;5.58;100.00;99524.94;4880201;29;19930;-81
2024/04/06 06:31:49;;;;;;;;;;;;;;;5.66;100.00;99523.91;4880140;29;19924;-82
2024/04/06 06:34:14;;;;;;;;;;;;;;;5.61;100.00;99526.66;4878779;29;20027;-82
2024/04/06 06:36:39;;;;;;;;;;;;;;;5.57;100.00;99523.25;4880157;29;19924;-82
2024/04/06 06:39:06;;;;;;;;;;;;;;;5.61;100.00;99535.38;4862219;29;19982;-82
2024/04/06 06:41:31;;;;;;;;;;;;;;;5.75;100.00;99521.03;4863447;29;19924;-81
2024/04/06 06:43:56;;;;;;;;;;;;;;;5.78;100.00;99526.22;4862993;29;19920;-82
2024/04/06 06:46:21;;;;;;;;;;;;;;;5.72;100.00;99529.00;4880028;29;19975;-82
2024/04/06 06:48:46;;;;;;;;;;;;;;;5.84;100.00;99528.66;4878704;29;19924;-83
2024/04/06 06:51:12;;;;;;;;;;;;;;;5.91;100.00;99532.84;4879805;29;20372;-82
2024/04/06 06:53:37;;;;;;;;;;;;;;;5.80;100.00;99533.13;4879749;29;19969;-82
2024/04/06 06:56:02;;;;;;;;;;;;;;;5.86;100.00;99528.63;4879760;29;19979;-82
2024/04/06 06:58:28;;;;;;;;;;;;;;;5.83;100.00;99525.16;4879475;29;20402;-82
2024/04/06 07:00:53;;;;;;;;;;;;;;;5.94;100.00;99527.50;4862897;29;19962;-82
2024/04/06 07:03:18;;;;;;;;;;;;;;;5.96;100.00;99523.06;4878367;29;19976;-82
2024/04/06 07:38:01;;;;;;;;;;;;;;;5.93;100.00;99491.56;5515433;23;19935;-81
2024/04/06 07:40:26;;;;;;;;;;;;;;;5.83;100.00;99495.38;4897628;29;19928;-88
2024/04/06 07:42:51;;;;;;;;;;;;;;;5.88;100.00;99495.25;4880906;29;20370;-82
2024/04/06 07:45:17;;;;;;;;;;;;;;;5.87;100.00;99498.78;4897538;29;19941;-79
2024/04/06 07:47:42;;;;;;;;;;;;;;;5.80;100.00;99498.09;4880789;29;20015;-78
2024/04/06 07:50:07;;;;;;;;;;;;;;;5.82;100.00;99489.28;4897290;29;19919;-78
2024/04/06 07:52:33;;;;;;;;;;;;;;;5.87;100.00;99497.03;4896108;29;19927;-79
2024/04/06 07:54:58;;;;;;;;;;;;;;;5.92;100.00;99492.50;4897420;29;19967;-80
2024/04/06 07:57:23;;;;;;;;;;;;;;;5.87;100.00;99497.03;4897335;29;19920;-78
2024/04/06 07:59:48;;;;;;;;;;;;;;;6.13;100.00;99483.16;4897333;29;19947;-77
2024/04/06 08:02:14;;;;;;;;;;;;;;;5.95;100.00;99484.53;4897262;29;19927;-77
2024/04/06 08:04:41;;;;;;;;;;;;;;;6.06;100.00;99478.09;4896589;29;20215;-78
2024/04/06 08:07:07;;;;;;;;;;;;;;;6.24;100.00;99474.94;4895942;29;19923;-81
2024/04/06 08:09:32;;;;;;;;;;;;;;;6.29;100.00;99467.75;4896971;29;20018;-79
2024/04/06 08:11:57;;;;;;;;;;;;;;;6.38;100.00;99465.75;4880499;29;19923;-82
2024/04/06 08:14:23;;;;;;;;;;;;;;;6.13;100.00;99467.38;4896881;29;20023;-79
2024/04/06 08:16:48;;;;;;;;;;;;;;;6.26;100.00;99465.22;4897458;29;19945;-76
2024/04/06 08:19:13;;;;;;;;;;;;;;;6.26;100.00;99462.59;4880227;29;19963;-79
2024/04/06 08:21:38;;;;;;;;;;;;;;;6.57;100.00;99455.53;4897089;29;19970;-85
2024/04/06 08:24:04;;;;;;;;;;;;;;;6.65;100.00;99457.00;4895837;29;19924;-85
2024/04/06 08:26:29;;;;;;;;;;;;;;;6.40;100.00;99453.41;4896947;29;19931;-83
2024/04/06 08:28:54;;;;;;;;;;;;;;;6.93;100.00;99453.47;4897117;29;19919;-78
2024/04/06 08:31:20;;;;;;;;;;;;;;;6.81;100.00;99462.66;4896970;29;20287;-79
2024/04/06 08:33:45;;;;;;;;;;;;;;;6.45;100.00;99456.78;4896736;29;19959;-83
2024/04/06 08:36:10;;;;;;;;;;;;;;;6.22;100.00;99458.31;4896791;29;20359;-81
2024/04/06 08:38:36;;;;;;;;;;;;;;;6.54;100.00;99456.47;4895340;29;19930;-81
2024/04/06 08:41:09;;;;;;;;;;;;;;;6.52;100.00;99458.28;4896929;29;20283;-81
2024/04/06 08:43:41;;;;;;;;;;;;;;;6.59;100.00;99462.47;4879864;29;19931;-80
2024/04/06 08:46:08;;;;;;;;;;;;;;;6.82;100.00;99456.44;4896949;29;19920;-82
2024/04/06 08:48:34;;;;;;;;;;;;;;;6.51;100.00;99452.19;4896753;29;19982;-81
2024/04/06 08:51:02;;;;;;;;;;;;;;;6.30;100.00;99456.34;4896823;29;19919;-81
2024/04/06 08:53:28;;;;;;;;;;;;;;;6.22;100.00;99450.44;4895462;29;19926;-80
2024/04/06 08:55:54;;;;;;;;;;;;;;;6.44;100.00;99457.69;4896836;29;19920;-87
2024/04/06 08:58:20;;;;;;;;;;;;;;;6.69;100.00;99471.78;4895959;29;20011;-80
2024/04/06 09:00:47;;;;;;;;;;;;;;;6.73;100.00;99473.41;4896857;29;19963;-87
2024/04/06 09:03:12;;;;;;;;;;;;;;;6.81;100.00;99469.66;4898887;29;19931;-83
2024/04/06 09:05:41;;;;;;;;;;;;;;;6.60;100.00;99458.91;4900268;29;19924;-81
2024/04/06 09:08:06;;;;;;;;;;;;;;;6.84;100.00;99459.88;4899188;29;20014;-84
2024/04/06 09:10:31;;;;;;;;;;;;;;;6.70;100.00;99465.63;4883540;29;20427;-81
2024/04/06 09:12:57;;;;;;;;;;;;;;;6.73;100.00;99462.88;4900350;29;19962;-79
2024/04/06 09:15:23;;;;;;;;;;;;;;;6.67;100.00;99455.19;4900098;29;19930;-78
2024/04/06 09:17:48;;;;;;;;;;;;;;;6.99;100.00;99461.16;4900384;29;19974;-78
2024/04/06 09:20:14;;;;;;;;;;;;;;;7.53;100.00;99455.81;4900077;29;20018;-80
2024/04/06 09:22:42;;;;;;;;;;;;;;;7.35;100.00;99455.53;4898832;29;19974;-80
2024/04/06 09:25:07;;;;;;;;;;;;;;;6.93;100.00;99453.47;4900159;29;19942;-84
2024/04/06 09:27:33;;;;;;;;;;;;;;;7.12;100.00;99456.34;4899957;29;20387;-82
2024/04/06 09:29:58;;;;;;;;;;;;;;;7.02;100.00;99468.97;4883220;29;20371;-83
2024/04/06 09:32:24;;;;;;;;;;;;;;;6.99;100.00;99474.34;4900029;29;20358;-80
2024/04/06 09:34:50;;;;;;;;;;;;;;;6.89;100.00;99475.53;4899663;29;20397;-86
2024/04/06 09:37:19;;;;;;;;;;;;;;;6.81;100.00;99475.81;4881713;29;19927;-78
2024/04/06 09:39:44;;;;;;;;;;;;;;;7.30;100.00;99472.44;4882303;29;19928;-81
2024/04/06 09:42:10;;;;;;;;;;;;;;;7.62;100.00;99466.03;4899902;29;20282;-81
2024/04/06 09:44:35;;;;;;;;;;;;;;;7.42;100.00;99461.47;4899712;29;19927;-87
2024/04/06 09:47:02;;;;;;;;;;;;;;;7.07;100.00;99466.19;4899871;29;20326;-82
2024/04/06 09:49:28;;;;;;;;;;;;;;;7.10;100.00;99463.44;4899472;29;19924;-81
2024/04/06 09:51:54;;;;;;;;;;;;;;;7.42;100.00;99467.59;4898521;29;19926;-83
2024/04/06 09:54:20;;;;;;;;;;;;;;;7.67;100.00;99466.72;4899609;29;20014;-80
2024/04/06 09:56:46;;;;;;;;;;;;;;;7.24;100.00;99447.16;4882790;29;19931;-80
2024/04/06 09:59:21;;;;;;;;;;;;;;;7.37;100.00;99448.47;4899371;29;20264;-82
2024/04/06 10:01:46;;;;;;;;;;;;;;;6.90;100.00;99446.50;4899192;29;20304;-80
2024/04/06 10:04:22;;;;;;;;;;;;;;;6.97;100.00;99448.94;4899583;29;20413;-88
2024/04/06 10:06:49;;;;;;;;;;;;;;;6.96;100.00;99441.97;4899030;29;19924;-89
2024/04/06 10:09:14;;;;;;;;;;;;;;;7.26;100.00;99432.16;4897983;29;19919;-85
2024/04/06 10:11:40;;;;;;;;;;;;;;;7.11;100.00;99430.06;4899139;29;19919;-83
2024/04/06 10:14:05;;;;;;;;;;;;;;;7.78;100.00;99427.63;4899021;29;19930;-84
2024/04/06 10:16:35;;;;;;;;;;;;;;;7.35;100.00;99423.06;4899110;29;19924;-85
2024/04/06 10:19:01;;;;;;;;;;;;;;;7.03;100.00;99432.94;4899100;29;20015;-87
2024/04/06 10:21:30;;;;;;;;;;;;;;;7.79;100.00;99425.88;4899063;29;20047;-79
2024/04/06 10:23:56;;;;;;;;;;;;;;;7.59;100.00;99424.81;4897852;29;20363;-81
2024/04/06 10:26:22;;;;;;;;;;;;;;;7.76;100.00;99418.91;4882061;29;19927;-80
2024/04/06 10:28:47;;;;;;;;;;;;;;;7.54;100.00;99413.56;4899156;29;19927;-81
2024/04/06 10:31:12;;;;;;;;;;;;;;;7.71;100.00;99406.84;4898860;29;19927;-84
2024/04/06 10:33:38;;;;;;;;;;;;;;;7.39;100.00;99403.59;4898839;29;20054;-81
2024/04/06 10:36:07;;;;;;;;;;;;;;;7.51;100.00;99395.22;4898885;29;20372;-82
2024/04/06 10:38:33;;;;;;;;;;;;;;;7.27;100.00;99392.59;4897152;29;19923;-84
2024/04/06 10:40:58;;;;;;;;;;;;;;;7.58;100.00;99395.88;4898831;29;20439;-79
2024/04/06 10:43:23;;;;;;;;;;;;;;;7.64;100.00;99398.28;4881623;29;20014;-83
2024/04/06 10:45:52;;;;;;;;;;;;;;;8.02;100.00;99390.69;4898629;29;20340;-80
2024/04/06 10:48:18;;;;;;;;;;;;;;;7.56;100.00;99389.78;4898641;29;20264;-79
2024/04/06 10:50:44;;;;;;;;;;;;;;;7.41;100.00;99392.06;4881536;29;19979;-83
2024/04/06 10:53:09;;;;;;;;;;;;;;;7.98;100.00;99381.19;4897266;29;19931;-79
2024/04/06 10:55:34;;;;;;;;;;;;;;;7.75;100.00;99376.78;4898378;29;19919;-84
2024/04/06 10:57:59;;;;;;;;;;;;;;;7.73;100.00;99371.56;4898488;29;20268;-79
2024/04/06 11:00:26;;;;;;;;;;;;;;;8.02;100.00;99371.38;4898262;29;20390;-78
2024/04/06 11:02:51;;;;;;;;;;;;;;;7.94;100.00;99364.59;4898539;29;20319;-76
2024/04/06 11:05:17;;;;;;;;;;;;;;;8.19;100.00;99364.50;4898316;29;19919;-79
2024/04/06 11:07:43;;;;;;;;;;;;;;;7.82;100.00;99365.94;4896927;29;19920;-77
2024/04/06 11:10:09;;;;;;;;;;;;;;;7.82;100.00;99365.09;4898332;29;19923;-78
2024/04/06 11:12:40;;;;;;;;;;;;;;;7.49;100.00;99356.66;4898227;29;20299;-80
2024/04/06 11:15:12;;;;;;;;;;;;;;;7.82;100.00;99355.38;4898028;29;19930;-77
2024/04/06 11:17:37;;;;;;;;;;;;;;;7.84;100.00;99354.47;4881194;29;20006;-78
2024/04/06 11:20:04;;;;;;;;;;;;;;;7.93;100.00;99351.47;4898083;29;19998;-77
2024/04/06 11:22:29;;;;;;;;;;;;;;;8.23;100.00;99354.66;4895924;29;19931;-80
2024/04/06 11:24:55;;;;;;;;;;;;;;;8.12;100.00;99356.88;4897362;29;19920;-85
2024/04/06 11:27:24;;;;;;;;;;;;;;;8.05;100.00;99364.19;4880914;29;19931;-76
2024/04/06 11:29:50;;;;;;;;;;;;;;;7.70;100.00;99365.53;4897760;29;19922;-78
2024/04/06 11:32:19;;;;;;;;;;;;;;;7.81;100.00;99364.22;4897764;29;19923;-82
2024/04/06 11:34:44;;;;;;;;;;;;;;;8.22;100.00;99357.38;4897659;29;19946;-80
2024/04/06 11:37:10;;;;;;;;;;;;;;;8.04;100.00;99344.00;4896653;29;20363;-81
2024/04/06 11:39:35;;;;;;;;;;;;;;;7.45;100.00;99346.25;4897361;29;19934;-79
2024/04/06 11:42:00;;;;;;;;;;;;;;;7.87;100.00;99343.81;4897619;29;19923;-81
2024/04/06 11:44:25;;;;;;;;;;;;;;;8.05;100.00;99340.44;4897630;29;19931;-83
2024/04/06 11:46:50;;;;;;;;;;;;;;;8.36;100.00;99345.34;4897491;29;19919;-79
2024/04/06 11:49:16;;;;;;;;;;;;;;;8.24;100.00;99342.34;4897482;29;19924;-82
2024/04/06 11:51:41;;;;;;;;;;;;;;;8.09;100.00;99349.09;4897323;29;19923;-76
2024/04/06 11:54:06;;;;;;;;;;;;;;;7.86;100.00;99344.72;4879209;29;19930;-80
2024/04/06 11:56:31;;;;;;;;;;;;;;;7.62;100.00;99334.19;4897108;29;19926;-79
2024/04/06 11:58:57;;;;;;;;;;;;;;;7.79;100.00;99342.31;4897407;29;19923;-81
2024/04/06 12:01:22;;;;;;;;;;;;;;;7.50;100.00;99337.28;4896636;29;20270;-76
2024/04/06 12:03:47;;;;;;;;;;;;;;;7.72;100.00;99335.56;4897229;29;20420;-77
2024/04/06 12:06:16;;;;;;;;;;;;;;;8.02;100.00;99337.91;4897348;29;20359;-77
2024/04/06 12:08:42;;;;;;;;;;;;;;;8.18;100.00;99335.53;4896020;29;19934;-79
2024/04/06 12:11:07;;;;;;;;;;;;;;;7.79;100.00;99331.78;4897204;29;19919;-79
2024/04/06 12:13:32;;;;;;;;;;;;;;;7.70;100.00;99324.19;4897142;29;19963;-78
2024/04/06 12:15:58;;;;;;;;;;;;;;;7.63;100.00;99328.84;4897553;29;19923;-78
2024/04/06 12:18:23;;;;;;;;;;;;;;;7.99;100.00;99324.84;4897456;29;19924;-77
2024/04/06 12:20:48;;;;;;;;;;;;;;;7.94;100.00;99316.25;4897103;29;19928;-77
2024/04/06 12:23:13;;;;;;;;;;;;;;;8.07;100.00;99309.56;4896180;29;19931;-77
2024/04/06 12:25:39;;;;;;;;;;;;;;;8.14;100.00;99304.91;4897135;29;19955;-80
2024/04/06 12:28:04;;;;;;;;;;;;;;;8.08;100.00;99306.00;4897167;29;20376;-77
2024/04/06 12:30:29;;;;;;;;;;;;;;;8.31;100.00;99309.50;4897048;29;19975;-80
2024/04/06 12:32:54;;;;;;;;;;;;;;;7.82;100.00;99296.50;4896208;29;20279;-84
2024/04/06 12:35:20;;;;;;;;;;;;;;;7.91;100.00;99295.28;4896826;29;19930;-79
2024/04/06 12:37:46;;;;;;;;;;;;;;;7.80;100.00;99291.28;4897346;29;19919;-84
2024/04/06 12:40:11;;;;;;;;;;;;;;;8.23;100.00;99287.84;4900833;29;20086;-83
2024/04/06 12:42:37;;;;;;;;;;;;;;;8.18;100.00;99283.63;4900804;29;20459;-80
2024/04/06 12:45:04;;;;;;;;;;;;;;;7.90;100.00;99272.47;4900954;29;20415;-82
2024/04/06 12:47:29;;;;;;;;;;;;;;;8.21;100.00;99268.56;4900760;29;19993;-82
2024/04/06 12:49:54;;;;;;;;;;;;;;;8.17;100.00;99265.22;4900675;29;20022;-83
2024/04/06 12:52:19;;;;;;;;;;;;;;;8.27;100.00;99260.41;4899479;29;20295;-81
2024/04/06 12:54:45;;;;;;;;;;;;;;;8.24;100.00;99255.25;4900484;29;19987;-82
2024/04/06 12:59:54;;;;;;;;;;;;;;;7.75;100.00;99243.13;4900875;29;19923;-80
2024/04/06 13:02:19;;;;;;;;;;;;;;;7.73;100.00;99244.97;4900480;29;19923;-82
2024/04/06 13:04:44;;;;;;;;;;;;;;;7.61;100.00;99245.44;4900440;29;19916;-85
2024/04/06 13:07:09;;;;;;;;;;;;;;;7.84;100.00;99233.16;4899196;29;19931;-82
2024/04/06 13:09:35;;;;;;;;;;;;;;;7.84;100.00;99225.25;4900564;29;19922;-81
2024/04/06 13:12:00;;;;;;;;;;;;;;;8.08;100.00;99228.66;4900294;29;19930;-84
2024/04/06 13:14:26;;;;;;;;;;;;;;;7.97;100.00;99223.81;4883332;29;19928;-82
2024/04/06 13:16:55;;;;;;;;;;;;;;;8.34;100.00;99230.19;4900253;29;19924;-84
2024/04/06 13:19:21;;;;;;;;;;;;;;;7.99;100.00;99219.31;4899815;29;20407;-84
2024/04/06 13:21:46;;;;;;;;;;;;;;;8.20;100.00;99228.13;4883143;29;19919;-85
2024/04/06 13:24:11;;;;;;;;;;;;;;;7.94;100.00;99232.69;4898930;29;19923;-83
2024/04/06 13:26:37;;;;;;;;;;;;;;;8.29;100.00;99240.06;4900108;29;19919;-82
2024/04/06 13:29:04;;;;;;;;;;;;;;;8.13;100.00;99240.72;4883360;29;19982;-80
2024/04/06 13:31:29;;;;;;;;;;;;;;;7.91;100.00;99234.59;4882497;29;19926;-86
2024/04/06 13:33:54;;;;;;;;;;;;;;;7.88;100.00;99243.50;4899823;29;19923;-85
2024/04/06 13:36:19;;;;;;;;;;;;;;;8.20;100.00;99233.41;4899974;29;19962;-83
2024/04/06 13:38:45;;;;;;;;;;;;;;;7.91;100.00;99231.97;4898245;29;19924;-83
2024/04/06 13:41:10;;;;;;;;;;;;;;;8.09;100.00;99233.84;4900173;29;19975;-82
2024/04/06 13:43:35;;;;;;;;;;;;;;;7.88;100.00;99224.16;4899796;29;20010;-84
2024/04/06 13:46:00;;;;;;;;;;;;;;;8.17;100.00;99229.13;4899780;29;19971;-83
2024/04/06 13:48:26;;;;;;;;;;;;;;;7.79;100.00;99217.50;4899231;29;20363;-83
2024/04/06 13:50:54;;;;;;;;;;;;;;;7.96;100.00;99224.72;4899873;29;19923;-80
2024/04/06 13:53:20;;;;;;;;;;;;;;;7.77;100.00;99221.97;4898382;29;19964;-78
2024/04/06 13:55:46;;;;;;;;;;;;;;;7.73;100.00;99218.59;4899439;29;20600;-77
2024/04/06 13:58:11;;;;;;;;;;;;;;;7.78;100.00;99228.97;4898739;29;20018;-76
2024/04/06 14:00:38;;;;;;;;;;;;;;;7.92;100.00;99228.41;4882593;29;19920;-84
2024/04/06 14:03:03;;;;;;;;;;;;;;;8.03;100.00;99220.06;4899428;29;19926;-84
2024/04/06 14:05:29;;;;;;;;;;;;;;;7.84;100.00;99225.25;4899371;29;19919;-87
2024/04/06 14:07:54;;;;;;;;;;;;;;;7.77;100.00;99220.22;4881261;29;19928;-83
2024/04/06 14:10:20;;;;;;;;;;;;;;;8.12;100.00;99228.47;4899169;29;19931;-80
2024/04/06 14:12:45;;;;;;;;;;;;;;;7.84;100.00;99226.09;4882445;29;19927;-85
2024/04/06 14:15:11;;;;;;;;;;;;;;;8.34;100.00;99228.41;4899216;29;19919;-85
2024/04/06 14:17:36;;;;;;;;;;;;;;;7.97;100.00;99221.16;4899346;29;19919;-84
2024/04/06 14:20:08;;;;;;;;;;;;;;;7.76;100.00;99218.47;4899179;29;20022;-86
2024/04/06 14:22:33;;;;;;;;;;;;;;;7.95;100.00;99220.38;4897478;29;20275;-81
2024/04/06 14:24:58;;;;;;;;;;;;;;;8.03;100.00;99220.91;4898875;29;19922;-84
2024/04/06 14:27:24;;;;;;;;;;;;;;;8.42;100.00;99222.78;4899162;29;19994;-83
2024/04/06 14:29:49;;;;;;;;;;;;;;;8.32;100.00;99210.91;4898937;29;19927;-91
2024/04/06 14:32:14;;;;;;;;;;;;;;;8.56;100.00;99216.09;4899139;29;19919;-79
2024/04/06 14:34:39;;;;;;;;;;;;;;;8.16;100.00;99216.84;4898798;29;19927;-83
2024/04/06 14:37:05;;;;;;;;;;;;;;;7.81;100.00;99216.50;4897435;29;19934;-83
2024/04/06 14:39:30;;;;;;;;;;;;;;;8.26;100.00;99219.94;4898629;29;20014;-80
2024/04/06 14:41:56;;;;;;;;;;;;;;;7.94;100.00;99213.38;4898720;29;19923;-77
2024/04/06 14:44:21;;;;;;;;;;;;;;;7.72;100.00;99216.91;4881726;29;19938;-76
2024/04/06 14:46:46;;;;;;;;;;;;;;;7.80;100.00;99209.53;4881830;29;19928;-77
2024/04/06 14:49:11;;;;;;;;;;;;;;;7.76;100.00;99215.00;4881603;29;20332;-80
2024/04/06 14:51:37;;;;;;;;;;;;;;;7.82;100.00;99205.03;4898416;29;19920;-79
2024/04/06 14:54:03;;;;;;;;;;;;;;;7.79;100.00;99207.81;4879954;29;19920;-78
2024/04/06 14:56:28;;;;;;;;;;;;;;;8.34;100.00;99214.34;4881641;29;19930;-79
2024/04/06 14:58:53;;;;;;;;;;;;;;;8.35;100.00;99205.50;4898396;29;19927;-77
2024/04/06 15:01:19;;;;;;;;;;;;;;;8.36;100.00;99208.06;4897249;29;19936;-78
2024/04/06 15:03:44;;;;;;;;;;;;;;;8.37;100.00;99199.22;4898061;29;19930;-80
2024/04/06 15:06:09;;;;;;;;;;;;;;;8.63;100.00;99204.31;4881535;29;19923;-79
2024/04/06 15:08:35;;;;;;;;;;;;;;;8.28;100.00;99198.75;4897186;29;20499;-77
2024/04/06 15:11:00;;;;;;;;;;;;;;;8.09;100.00;99207.47;4898305;29;19926;-80
2024/04/06 15:13:26;;;;;;;;;;;;;;;12.07;100.00;99206.28;4898272;29;20317;-79
2024/04/06 15:15:51;;;;;;;;;;;;;;;9.20;100.00;99196.47;4898103;29;19927;-78
2024/04/06 15:18:16;;;;;;;;;;;;;;;8.83;100.00;99200.81;4898248;29;19920;-78
2024/04/06 15:20:42;;;;;;;;;;;;;;;8.16;100.00;99198.34;4881367;29;19971;-82
2024/04/06 15:23:07;;;;;;;;;;;;;;;8.08;100.00;99194.34;4863585;29;19927;-78
2024/04/06 15:25:33;;;;;;;;;;;;;;;7.90;100.00;99195.97;4898045;29;20379;-78
2024/04/06 15:28:01;;;;;;;;;;;;;;;8.06;100.00;99198.81;4898139;29;19919;-82
2024/04/06 15:30:26;;;;;;;;;;;;;;;8.12;100.00;99193.28;4898024;29;20311;-82
2024/04/06 15:32:51;;;;;;;;;;;;;;;7.75;100.00;99194.81;4898271;29;19930;-81
2024/04/06 15:35:20;;;;;;;;;;;;;;;7.89;100.00;99195.09;4898437;29;19920;-83
2024/04/06 15:37:45;;;;;;;;;;;;;;;7.81;100.00;99187.50;4880317;29;19927;-86
2024/04/06 15:40:10;;;;;;;;;;;;;;;7.94;100.00;99192.28;4897615;29;19959;-85
2024/04/06 15:42:36;;;;;;;;;;;;;;;7.82;100.00;99191.84;4897588;29;19923;-79
2024/04/06 15:45:02;;;;;;;;;;;;;;;8.68;100.00;99194.41;4898055;29;19923;-79
2024/04/06 15:47:27;;;;;;;;;;;;;;;9.68;100.00;99183.63;4898285;29;20291;-82
2024/04/06 15:49:53;;;;;;;;;;;;;;;8.71;100.00;99186.34;4897736;29;19962;-85
2024/04/06 15:52:19;;;;;;;;;;;;;;;8.11;100.00;99191.56;4879465;29;19926;-81
2024/04/06 15:54:45;;;;;;;;;;;;;;;7.96;100.00;99198.34;4897739;29;19924;-78
2024/04/06 15:57:10;;;;;;;;;;;;;;;8.09;100.00;99185.47;4897677;29;19926;-77
2024/04/06 15:59:35;;;;;;;;;;;;;;;8.00;100.00;99198.16;4897743;29;19928;-77
2024/04/06 16:02:01;;;;;;;;;;;;;;;7.95;100.00;99196.63;4880277;29;19934;-81
2024/04/06 16:04:26;;;;;;;;;;;;;;;7.87;100.00;99193.47;4896991;29;19923;-87
2024/04/06 16:06:52;;;;;;;;;;;;;;;7.68;100.00;99193.34;4896889;29;19924;-77
2024/04/06 16:09:18;;;;;;;;;;;;;;;7.38;100.00;99191.00;4896561;29;20400;-78
2024/04/06 16:11:43;;;;;;;;;;;;;;;7.18;100.00;99191.75;4897004;29;20022;-80
2024/04/06 16:14:09;;;;;;;;;;;;;;;7.19;100.00;99196.13;4896815;29;19947;-78
2024/04/06 16:16:34;;;;;;;;;;;;;;;7.22;100.00;99190.75;4897410;29;19923;-83
2024/04/06 16:18:59;;;;;;;;;;;;;;;7.35;100.00;99199.03;4896978;29;19919;-79
2024/04/06 16:21:25;;;;;;;;;;;;;;;7.50;100.00;99195.81;4897239;29;19931;-78
2024/04/06 16:23:51;;;;;;;;;;;;;;;7.56;100.00;99199.97;4896101;29;19920;-82
2024/04/06 16:26:16;;;;;;;;;;;;;;;7.78;100.00;99210.50;4897177;29;20495;-82
2024/04/06 16:28:41;;;;;;;;;;;;;;;7.89;100.00;99212.72;4897061;29;19927;-79
2024/04/06 16:31:08;;;;;;;;;;;;;;;7.93;100.00;99209.00;4897207;29;20339;-85
2024/04/06 16:33:34;;;;;;;;;;;;;;;7.96;100.00;99206.25;4879675;29;19993;-78
2024/04/06 16:35:59;;;;;;;;;;;;;;;8.06;100.00;99210.22;4896907;29;19966;-78
2024/04/06 16:38:25;;;;;;;;;;;;;;;8.09;100.00;99209.22;4895532;29;19923;-81
2024/04/06 16:40:51;;;;;;;;;;;;;;;8.12;100.00;99206.47;4896816;29;19948;-79
2024/04/06 16:43:16;;;;;;;;;;;;;;;8.02;100.00;99202.50;4880189;29;19920;-81
2024/04/06 16:45:42;;;;;;;;;;;;;;;7.97;100.00;99205.34;4896989;29;20014;-81
2024/04/06 16:48:08;;;;;;;;;;;;;;;7.86;100.00;99197.00;4880032;29;20319;-77
2024/04/06 16:50:33;;;;;;;;;;;;;;;7.76;100.00;99201.81;4896958;29;19923;-80
2024/04/06 16:53:02;;;;;;;;;;;;;;;7.69;100.00;99195.94;4895430;29;19934;-79
2024/04/06 16:55:28;;;;;;;;;;;;;;;7.62;100.00;99195.28;4896202;29;20038;-79
2024/04/06 16:57:53;;;;;;;;;;;;;;;7.56;100.00;99198.19;4896894;29;19924;-82
2024/04/06 17:00:18;;;;;;;;;;;;;;;7.89;100.00;99186.34;4896799;29;20740;-78
2024/04/06 17:02:44;;;;;;;;;;;;;;;7.71;100.00;99188.81;4896877;29;20283;-78
2024/04/06 17:05:13;;;;;;;;;;;;;;;7.69;100.00;99185.38;4897034;29;19955;-84
2024/04/06 17:07:39;;;;;;;;;;;;;;;7.63;100.00;99186.47;4895545;29;20435;-83
2024/04/06 17:10:04;;;;;;;;;;;;;;;7.64;100.00;99197.88;4879661;29;19946;-80
2024/04/06 17:12:30;;;;;;;;;;;;;;;7.62;100.00;99200.56;4896969;29;19931;-80
2024/04/06 17:14:56;;;;;;;;;;;;;;;7.69;100.00;99203.84;4879260;29;20363;-81
2024/04/06 17:17:21;;;;;;;;;;;;;;;7.61;100.00;99212.06;4897041;29;19928;-82
2024/04/06 17:19:47;;;;;;;;;;;;;;;7.63;100.00;99227.81;4896779;29;19920;-81
2024/04/06 17:22:12;;;;;;;;;;;;;;;7.61;100.00;99229.63;4895451;29;20013;-82
2024/04/06 17:24:37;;;;;;;;;;;;;;;7.81;100.00;99237.59;4882524;29;19979;-81
2024/04/06 17:27:03;;;;;;;;;;;;;;;7.73;100.00;99238.84;4900135;29;19926;-80
2024/04/06 17:29:28;;;;;;;;;;;;;;;8.37;100.00;99227.41;4900139;29;19923;-81
2024/04/06 17:31:53;;;;;;;;;;;;;;;8.02;100.00;99221.81;4900022;29;19919;-77
2024/04/06 17:34:18;;;;;;;;;;;;;;;8.03;100.00;99220.06;4883380;29;19924;-86
2024/04/06 17:36:44;;;;;;;;;;;;;;;7.96;100.00;99219.44;4883065;29;19927;-80
2024/04/06 17:39:12;;;;;;;;;;;;;;;7.94;100.00;99218.66;4898300;29;19931;-79
2024/04/06 17:41:38;;;;;;;;;;;;;;;7.88;100.00;99226.81;4900294;29;19920;-80
2024/04/06 17:44:04;;;;;;;;;;;;;;;7.91;100.00;99231.97;4882171;29;19923;-82
2024/04/06 17:46:31;;;;;;;;;;;;;;;7.98;100.00;99239.56;4882993;29;20367;-80
2024/04/06 17:48:57;;;;;;;;;;;;;;;8.06;100.00;99248.94;4898719;29;19924;-79
2024/04/06 17:51:22;;;;;;;;;;;;;;;8.07;100.00;99248.03;4898997;29;19935;-78
2024/04/06 17:53:47;;;;;;;;;;;;;;;8.15;100.00;99248.56;4897367;29;19987;-86
2024/04/06 17:56:13;;;;;;;;;;;;;;;8.24;100.00;99242.91;4882129;29;19929;-77
2024/04/06 17:58:38;;;;;;;;;;;;;;;8.33;100.00;99245.16;4899681;29;20363;-80
2024/04/06 18:01:03;;;;;;;;;;;;;;;8.40;100.00;99240.47;4899363;29;20383;-79
2024/04/06 18:03:28;;;;;;;;;;;;;;;9.25;100.00;99231.47;4898939;29;19955;-77
2024/04/06 18:05:54;;;;;;;;;;;;;;;11.87;100.00;99235.75;4898996;29;20272;-76
2024/04/06 18:08:19;;;;;;;;;;;;;;;9.68;100.00;99247.13;4898037;29;19923;-77
2024/04/06 18:13:16;;;;;;;;;;;;;;;7.02;100.00;99236.28;4894389;29;20323;-85
2024/04/06 18:15:42;;;;;;;;;;;;;;;6.51;100.00;99231.06;4899109;29;19928;-85
2024/04/06 18:18:08;;;;;;;;;;;;;;;6.18;100.00;99228.69;4898430;29;19935;-85
2024/04/06 18:20:33;;;;;;;;;;;;;;;6.07;100.00;99236.06;4882333;29;19927;-93
2024/04/06 18:22:58;;;;;;;;;;;;;;;5.88;100.00;99229.66;4881823;29;19955;-83
2024/04/06 18:25:24;;;;;;;;;;;;;;;5.76;100.00;99234.41;4898997;29;20355;-80
2024/04/06 18:27:49;;;;;;;;;;;;;;;5.64;100.00;99247.94;4881006;29;20279;-83
2024/04/06 18:30:15;;;;;;;;;;;;;;;5.55;100.00;99243.84;4881282;29;19963;-79
2024/04/06 18:32:41;;;;;;;;;;;;;;;5.54;100.00;99246.53;4898473;29;19927;-79
2024/04/06 18:35:07;;;;;;;;;;;;;;;5.43;100.00;99245.06;4898052;29;20054;-81
2024/04/06 18:37:32;;;;;;;;;;;;;;;5.53;100.00;99245.63;4897762;29;19927;-81